createdAt,value
2018-07-29T05:50:08.032Z,1010.93
2018-07-29T05:51:07.944Z,1010.86
2018-07-29T05:52:07.853Z,1010.91
2018-07-29T05:53:07.763Z,1010.92
2018-07-29T05:54:07.668Z,1010.94
2018-07-29T05:55:07.579Z,1011.01
2018-07-29T05:56:07.559Z,1011.00
2018-07-29T05:57:07.396Z,1011.01
2018-07-29T05:58:07.307Z,1010.99
2018-07-29T05:59:07.217Z,1011.03
2018-07-29T06:00:07.127Z,1010.99
2018-07-29T06:01:07.036Z,1011.02
2018-07-29T06:02:06.941Z,1010.99
2018-07-29T06:03:06.852Z,1010.95
2018-07-29T06:04:06.762Z,1011.01
2018-07-29T06:05:06.670Z,1011.00
2018-07-29T06:06:06.582Z,1011.05
2018-07-29T06:07:06.479Z,1011.06
2018-07-29T06:08:06.391Z,1011.09
2018-07-29T06:09:06.296Z,1011.11
2018-07-29T06:10:06.206Z,1011.09
2018-07-29T06:11:06.114Z,1011.13
2018-07-29T06:12:06.025Z,1011.11
2018-07-29T06:13:05.936Z,1011.11
2018-07-29T06:14:05.840Z,1011.14
2018-07-29T06:15:05.749Z,1011.11
2018-07-29T06:16:05.659Z,1011.16
2018-07-29T06:17:05.567Z,1011.20
2018-07-29T06:18:05.482Z,1011.18
2018-07-29T06:19:05.376Z,1011.21
2018-07-29T06:20:05.285Z,1011.18
2018-07-29T06:21:05.195Z,1011.23
2018-07-29T06:22:05.101Z,1011.20
2018-07-29T06:23:05.011Z,1011.26
2018-07-29T06:24:04.919Z,1011.27
2018-07-29T06:25:04.830Z,1011.28
2018-07-29T06:26:04.790Z,1011.32
2018-07-29T06:27:04.635Z,1011.36
2018-07-29T06:28:04.568Z,1011.35
2018-07-29T06:29:04.461Z,1011.39
2018-07-29T06:30:04.368Z,1011.39
2018-07-29T06:31:04.275Z,1011.44
2018-07-29T06:32:04.183Z,1011.43
2018-07-29T06:33:04.094Z,1011.43
2018-07-29T06:34:03.993Z,1011.44
2018-07-29T06:35:03.896Z,1011.48
2018-07-29T06:36:03.805Z,1011.44
2018-07-29T06:37:03.715Z,1011.43
2018-07-29T06:38:03.875Z,1011.42
2018-07-29T06:39:03.535Z,1011.45
2018-07-29T06:40:03.444Z,1011.45
2018-07-29T06:41:03.353Z,1011.47
2018-07-29T06:42:03.248Z,1011.45
2018-07-29T06:43:03.170Z,1011.45
2018-07-29T06:44:03.067Z,1011.54
2018-07-29T06:45:02.976Z,1011.49
2018-07-29T06:46:02.891Z,1011.62
2018-07-29T06:47:02.796Z,1011.56
2018-07-29T06:48:02.705Z,1011.65
2018-07-29T06:49:02.614Z,1011.58
2018-07-29T06:50:02.532Z,1011.60
2018-07-29T06:51:02.431Z,1011.61
2018-07-29T06:52:02.343Z,1011.61
2018-07-29T06:53:02.248Z,1011.70
2018-07-29T06:54:02.163Z,1011.68
2018-07-29T06:55:02.068Z,1011.71
2018-07-29T06:56:01.979Z,1011.71
2018-07-29T06:57:01.887Z,1011.73
2018-07-29T06:58:02.047Z,1011.70
2018-07-29T06:59:01.705Z,1011.72
2018-07-29T07:00:01.616Z,1011.77
2018-07-29T07:01:01.524Z,1011.80
2018-07-29T07:02:01.432Z,1011.76
2018-07-29T07:03:01.340Z,1011.79
2018-07-29T07:04:01.238Z,1011.80
2018-07-29T07:05:01.148Z,1011.83
2018-07-29T07:06:01.063Z,1011.83
2018-07-29T07:07:00.968Z,1011.83
2018-07-29T07:08:01.130Z,1011.83
2018-07-29T07:09:00.789Z,1011.85
2018-07-29T07:10:00.693Z,1011.87
2018-07-29T07:11:00.603Z,1011.92
2018-07-29T07:12:00.510Z,1011.95
2018-07-29T07:13:00.421Z,1012.14
2018-07-29T07:14:00.328Z,1011.90
2018-07-29T07:15:00.238Z,1012.04
2018-07-29T07:16:00.163Z,1011.96
2018-07-29T07:17:00.059Z,1011.94
2018-07-29T07:17:59.998Z,1012.23
2018-07-29T07:18:59.877Z,1012.19
2018-07-29T07:19:59.785Z,1012.06
2018-07-29T07:20:59.696Z,1012.04
2018-07-29T07:21:59.602Z,1012.20
2018-07-29T07:22:59.512Z,1011.91
2018-07-29T07:23:59.422Z,1011.92
2018-07-29T07:24:59.342Z,1011.96
2018-07-29T07:25:59.272Z,1012.05
2018-07-29T07:26:59.163Z,1011.98
2018-07-29T07:27:59.072Z,1011.96
2018-07-29T07:28:58.985Z,1012.02
2018-07-29T07:29:58.891Z,1012.04
2018-07-29T07:30:58.799Z,1012.07
2018-07-29T07:31:58.709Z,1012.08
2018-07-29T07:32:58.619Z,1012.06
2018-07-29T07:33:58.537Z,1012.06
2018-07-29T07:34:58.450Z,1012.07
2018-07-29T07:35:58.360Z,1012.07
2018-07-29T07:36:58.265Z,1012.00
2018-07-29T07:37:58.176Z,1012.05
2018-07-29T07:38:58.087Z,1012.05
2018-07-29T07:39:57.994Z,1012.04
2018-07-29T07:40:57.916Z,1012.10
2018-07-29T07:41:57.823Z,1012.29
2018-07-29T07:42:57.732Z,1012.20
2018-07-29T07:43:57.645Z,1012.14
2018-07-29T07:44:57.553Z,1012.07
2018-07-29T07:45:57.498Z,1012.11
2018-07-29T07:46:57.369Z,1012.12
2018-07-29T07:47:57.280Z,1012.18
2018-07-29T07:48:57.189Z,1012.33
2018-07-29T07:49:57.114Z,1012.32
2018-07-29T07:50:57.021Z,1012.14
2018-07-29T07:51:56.930Z,1012.23
2018-07-29T07:52:56.839Z,1012.11
2018-07-29T07:53:56.760Z,1012.14
2018-07-29T07:54:56.656Z,1012.10
2018-07-29T07:55:56.578Z,1012.11
2018-07-29T07:56:56.486Z,1012.07
2018-07-29T07:57:56.398Z,1012.09
2018-07-29T07:58:56.306Z,1012.07
2018-07-29T07:59:56.217Z,1012.04
2018-07-29T08:00:56.155Z,1012.05
2018-07-29T08:01:56.059Z,1012.07
2018-07-29T08:02:55.958Z,1012.06
2018-07-29T08:03:55.865Z,1012.07
2018-07-29T08:04:55.775Z,1012.08
2018-07-29T08:05:55.682Z,1012.06
2018-07-29T08:06:55.604Z,1012.07
2018-07-29T08:07:55.665Z,1012.10
2018-07-29T08:08:55.421Z,1012.09
2018-07-29T08:09:55.333Z,1012.08
2018-07-29T08:10:55.242Z,1012.09
2018-07-29T08:11:55.163Z,1012.11
2018-07-29T08:12:55.073Z,1012.11
2018-07-29T08:13:54.980Z,1012.10
2018-07-29T08:14:54.890Z,1012.11
2018-07-29T08:15:54.798Z,1012.18
2018-07-29T08:16:54.708Z,1012.19
2018-07-29T08:17:54.631Z,1012.15
2018-07-29T08:18:54.538Z,1012.12
2018-07-29T08:19:54.447Z,1012.14
2018-07-29T08:20:54.358Z,1012.12
2018-07-29T08:21:54.268Z,1012.14
2018-07-29T08:22:54.192Z,1012.12
2018-07-29T08:23:54.098Z,1012.19
2018-07-29T08:24:54.002Z,1012.11
2018-07-29T08:25:53.928Z,1012.14
2018-07-29T08:26:53.825Z,1012.12
2018-07-29T08:27:53.759Z,1012.18
2018-07-29T08:28:53.655Z,1012.22
2018-07-29T08:29:53.567Z,1012.25
2018-07-29T08:30:53.476Z,1012.20
2018-07-29T08:31:53.385Z,1012.23
2018-07-29T08:32:53.295Z,1012.21
2018-07-29T08:33:53.215Z,1012.22
2018-07-29T08:34:53.126Z,1012.27
2018-07-29T08:35:53.033Z,1012.27
2018-07-29T08:36:52.948Z,1012.24
2018-07-29T08:37:52.854Z,1012.26
2018-07-29T08:38:52.810Z,1012.24
2018-07-29T08:39:52.669Z,1012.25
2018-07-29T08:40:52.579Z,1012.24
2018-07-29T08:41:52.503Z,1012.19
2018-07-29T08:42:52.412Z,1012.26
2018-07-29T08:43:52.320Z,1012.28
2018-07-29T08:44:52.229Z,1012.28
2018-07-29T08:45:52.137Z,1012.30
2018-07-29T08:46:52.046Z,1012.33
2018-07-29T08:47:51.955Z,1012.33
2018-07-29T08:48:51.864Z,1012.21
2018-07-29T08:49:51.787Z,1012.18
2018-07-29T08:50:51.698Z,1012.32
2018-07-29T08:51:51.624Z,1012.21
2018-07-29T08:52:51.515Z,1012.22
2018-07-29T08:53:51.422Z,1012.25
2018-07-29T08:54:51.337Z,1012.39
2018-07-29T08:55:51.241Z,1012.16
2018-07-29T08:56:51.149Z,1012.28
2018-07-29T08:57:51.060Z,1012.36
2018-07-29T08:58:50.972Z,1012.39
2018-07-29T08:59:50.881Z,1012.41
2018-07-29T09:06:50.268Z,1012.33
2018-07-29T09:07:50.176Z,1012.30
2018-07-29T09:08:50.085Z,1012.15
2018-07-29T09:09:49.996Z,1012.11
2018-07-29T09:10:49.918Z,1012.28
2018-07-29T09:11:49.828Z,1012.28
2018-07-29T09:12:49.736Z,1012.30
2018-07-29T09:13:49.656Z,1012.27
2018-07-29T09:14:49.566Z,1012.25
2018-07-29T09:15:49.525Z,1012.23
2018-07-29T09:16:49.395Z,1012.23
2018-07-29T09:17:49.309Z,1012.31
2018-07-29T09:18:49.217Z,1012.35
2018-07-29T09:19:49.138Z,1012.33
2018-07-29T09:20:49.050Z,1012.31
2018-07-29T09:21:48.957Z,1012.34
2018-07-29T09:22:48.877Z,1012.31
2018-07-29T09:23:48.788Z,1012.33
2018-07-29T09:24:48.710Z,1012.35
2018-07-29T09:25:48.617Z,1012.35
2018-07-29T09:26:48.538Z,1012.29
2018-07-29T09:27:48.448Z,1012.31
2018-07-29T09:28:48.360Z,1012.29
2018-07-29T09:29:48.280Z,1012.31
2018-07-29T09:30:48.309Z,1012.25
2018-07-29T09:31:48.111Z,1012.23
2018-07-29T09:32:48.034Z,1012.12
2018-07-29T09:33:47.957Z,1012.03
2018-07-29T09:34:47.861Z,1012.06
2018-07-29T09:35:47.771Z,1012.16
2018-07-29T09:36:47.694Z,1012.18
2018-07-29T09:37:47.914Z,1012.21
2018-07-29T09:38:47.523Z,1012.20
2018-07-29T09:39:47.482Z,1012.06
2018-07-29T09:40:47.355Z,1012.19
2018-07-29T09:41:47.278Z,1012.17
2018-07-29T09:42:47.189Z,1012.17
2018-07-29T09:43:47.108Z,1012.16
2018-07-29T09:44:47.033Z,1012.13
2018-07-29T09:45:46.939Z,1012.12
2018-07-29T09:48:46.689Z,1012.10
2018-07-29T09:49:46.613Z,1012.09
2018-07-29T09:50:46.535Z,1012.14
2018-07-29T09:51:46.445Z,1012.09
2018-07-29T09:52:46.367Z,1012.08
2018-07-29T09:53:46.292Z,1012.07
2018-07-29T09:54:46.247Z,1012.07
2018-07-29T09:55:46.119Z,1012.07
2018-07-29T09:56:46.040Z,1012.07
2018-07-29T09:57:45.960Z,1011.97
2018-07-29T09:58:45.881Z,1011.98
2018-07-29T09:59:45.792Z,1012.14
2018-07-29T10:00:45.713Z,1012.08
2018-07-29T10:01:45.636Z,1012.12
2018-07-29T10:02:45.808Z,1012.05
2018-07-29T10:03:45.484Z,1012.05
2018-07-29T10:04:45.389Z,1012.04
2018-07-29T10:05:45.308Z,1011.99
2018-07-29T10:06:45.230Z,1011.99
2018-07-29T10:07:45.202Z,1011.91
2018-07-29T10:08:45.063Z,1011.88
2018-07-29T10:09:44.983Z,1011.86
2018-07-29T10:10:44.905Z,1011.81
2018-07-29T10:11:44.828Z,1011.86
2018-07-29T10:12:44.749Z,1011.85
2018-07-29T10:13:44.672Z,1011.89
2018-07-29T10:14:44.581Z,1011.90
2018-07-29T10:15:44.609Z,1011.95
2018-07-29T10:16:44.425Z,1011.96
2018-07-29T10:17:44.345Z,1011.95
2018-07-29T10:18:44.265Z,1011.97
2018-07-29T10:19:44.175Z,1011.95
2018-07-29T10:20:44.097Z,1011.89
2018-07-29T10:21:44.021Z,1011.91
2018-07-29T10:22:43.943Z,1011.88
2018-07-29T10:23:43.852Z,1011.88
2018-07-29T10:24:43.772Z,1011.87
2018-07-29T10:25:43.696Z,1011.88
2018-07-29T10:26:43.616Z,1011.89
2018-07-29T10:27:43.539Z,1011.87
2018-07-29T10:28:43.459Z,1011.88
2018-07-29T10:29:43.379Z,1011.88
2018-07-29T10:30:43.290Z,1011.84
2018-07-29T10:31:43.210Z,1011.85
2018-07-29T10:32:43.132Z,1011.82
2018-07-29T10:33:43.056Z,1011.81
2018-07-29T10:34:42.978Z,1011.78
2018-07-29T10:35:42.899Z,1011.81
2018-07-29T10:36:42.823Z,1011.79
2018-07-29T10:37:42.992Z,1011.77
2018-07-29T10:38:42.662Z,1011.84
2018-07-29T10:39:42.585Z,1011.82
2018-07-29T10:40:42.507Z,1011.81
2018-07-29T10:41:42.428Z,1011.80
2018-07-29T10:42:42.350Z,1011.82
2018-07-29T10:43:42.271Z,1011.84
2018-07-29T10:44:42.193Z,1011.78
2018-07-29T10:45:42.118Z,1011.80
2018-07-29T10:46:42.057Z,1011.80
2018-07-29T10:47:41.960Z,1011.83
2018-07-29T10:48:41.883Z,1011.79
2018-07-29T10:49:41.802Z,1011.78
2018-07-29T10:50:41.726Z,1011.80
2018-07-29T10:51:41.645Z,1011.78
2018-07-29T10:52:41.567Z,1011.79
2018-07-29T10:53:41.492Z,1011.80
2018-07-29T10:54:41.413Z,1011.70
2018-07-29T10:55:41.336Z,1011.70
2018-07-29T10:56:41.256Z,1011.71
2018-07-29T10:57:41.176Z,1011.70
2018-07-29T10:58:41.151Z,1011.67
2018-07-29T10:59:41.075Z,1011.66
2018-07-29T11:00:40.940Z,1011.68
2018-07-29T11:01:40.865Z,1011.66
2018-07-29T11:02:40.788Z,1011.66
2018-07-29T11:03:40.707Z,1011.63
2018-07-29T11:04:40.631Z,1011.63
2018-07-29T11:05:40.549Z,1011.63
2018-07-29T11:06:40.471Z,1011.61
2018-07-29T11:07:40.392Z,1011.57
2018-07-29T11:08:40.316Z,1011.60
2018-07-29T11:09:40.238Z,1011.62
2018-07-29T11:10:40.159Z,1011.65
2018-07-29T11:11:40.081Z,1011.63
2018-07-29T11:12:40.005Z,1011.62
2018-07-29T11:13:39.964Z,1011.62
2018-07-29T11:14:39.851Z,1011.57
2018-07-29T11:15:39.769Z,1011.61
2018-07-29T11:16:39.689Z,1011.56
2018-07-29T11:17:39.614Z,1011.59
2018-07-29T11:18:39.531Z,1011.58
2018-07-29T11:19:39.441Z,1011.55
2018-07-29T11:20:39.361Z,1011.58
2018-07-29T11:21:39.285Z,1011.56
2018-07-29T11:22:39.208Z,1011.56
2018-07-29T11:23:39.128Z,1011.55
2018-07-29T11:24:39.050Z,1011.53
2018-07-29T11:25:38.969Z,1011.52
2018-07-29T11:26:38.891Z,1011.53
2018-07-29T11:27:38.813Z,1011.47
2018-07-29T11:28:38.735Z,1011.46
2018-07-29T11:29:38.656Z,1011.45
2018-07-29T11:30:38.598Z,1011.45
2018-07-29T11:31:38.500Z,1011.45
2018-07-29T11:32:38.422Z,1011.42
2018-07-29T11:33:38.345Z,1011.33
2018-07-29T11:34:38.268Z,1011.34
2018-07-29T11:35:38.179Z,1011.34
2018-07-29T11:36:38.099Z,1011.33
2018-07-29T11:37:38.020Z,1011.31
2018-07-29T11:38:37.940Z,1011.32
2018-07-29T11:39:37.862Z,1011.30
2018-07-29T11:40:37.783Z,1011.27
2018-07-29T11:41:37.764Z,1011.30
2018-07-29T11:42:37.879Z,1011.28
2018-07-29T11:43:37.537Z,1011.31
2018-07-29T11:44:37.461Z,1011.31
2018-07-29T11:46:37.297Z,1011.33
2018-07-29T11:47:37.213Z,1011.26
2018-07-29T11:48:37.135Z,1011.26
2018-07-29T11:49:37.053Z,1011.26
2018-07-29T11:50:36.963Z,1011.27
2018-07-29T11:51:36.883Z,1011.27
2018-07-29T11:52:36.794Z,1011.24
2018-07-29T11:53:36.705Z,1011.28
2018-07-29T11:54:36.626Z,1011.31
2018-07-29T11:55:36.536Z,1011.28
2018-07-29T11:56:36.457Z,1011.26
2018-07-29T11:57:36.373Z,1011.27
2018-07-29T11:58:36.286Z,1011.22
2018-07-29T11:59:36.197Z,1011.23
2018-07-29T12:00:36.106Z,1011.25
2018-07-29T12:01:36.025Z,1011.18
2018-07-29T12:02:35.939Z,1011.17
2018-07-29T12:03:35.857Z,1011.20
2018-07-29T12:04:35.766Z,1011.21
2018-07-29T12:05:35.677Z,1011.22
2018-07-29T12:06:35.601Z,1011.27
2018-07-29T12:07:35.508Z,1011.27
2018-07-29T12:08:35.417Z,1011.30
2018-07-29T12:09:35.325Z,1011.33
2018-07-29T12:10:35.245Z,1011.30
2018-07-29T12:11:35.155Z,1011.28
2018-07-29T12:12:35.064Z,1011.23
2018-07-29T12:13:34.987Z,1011.21
2018-07-29T12:14:34.902Z,1011.19
2018-07-29T12:15:34.806Z,1011.18
2018-07-29T12:16:34.727Z,1011.16
2018-07-29T12:17:34.638Z,1011.13
2018-07-29T12:18:34.546Z,1011.09
2018-07-29T12:19:34.468Z,1011.09
2018-07-29T12:20:34.377Z,1011.06
2018-07-29T12:21:34.302Z,1011.08
2018-07-29T12:22:34.213Z,1011.05
2018-07-29T12:23:34.127Z,1011.02
2018-07-29T12:24:34.038Z,1011.02
2018-07-29T12:25:33.962Z,1011.01
2018-07-29T12:26:33.870Z,1011.02
2018-07-29T12:27:33.792Z,1011.00
2018-07-29T12:28:33.701Z,1011.02
2018-07-29T12:29:33.620Z,1011.04
2018-07-29T12:30:33.530Z,1011.02
2018-07-29T12:31:33.453Z,1010.96
2018-07-29T12:32:33.360Z,1011.01
2018-07-29T12:33:33.282Z,1010.92
2018-07-29T12:34:33.204Z,1010.94
2018-07-29T12:35:33.112Z,1010.92
2018-07-29T12:36:33.023Z,1010.94
2018-07-29T12:37:32.935Z,1010.98
2018-07-29T12:38:32.856Z,1010.96
2018-07-29T12:39:32.764Z,1010.94
2018-07-29T12:40:32.687Z,1010.92
2018-07-29T12:41:32.593Z,1010.88
2018-07-29T12:42:32.503Z,1010.87
2018-07-29T12:43:32.425Z,1010.85
2018-07-29T12:44:32.337Z,1010.82
2018-07-29T12:45:32.245Z,1010.84
2018-07-29T12:46:32.167Z,1010.80
2018-07-29T12:47:32.081Z,1010.84
2018-07-29T12:48:31.985Z,1010.84
2018-07-29T12:49:31.907Z,1010.81
2018-07-29T12:50:31.815Z,1010.84
2018-07-29T12:51:31.725Z,1010.85
2018-07-29T12:52:31.634Z,1010.86
2018-07-29T12:53:31.560Z,1010.83
2018-07-29T12:54:31.515Z,1010.85
2018-07-29T12:55:31.372Z,1010.82
2018-07-29T12:56:31.294Z,1010.81
2018-07-29T12:57:31.205Z,1010.75
2018-07-29T12:58:31.114Z,1010.73
2018-07-29T12:59:31.024Z,1010.74
2018-07-29T13:00:30.994Z,1010.75
2018-07-29T13:01:30.851Z,1010.68
2018-07-29T13:02:30.762Z,1010.70
2018-07-29T13:03:30.670Z,1010.66
2018-07-29T13:04:30.592Z,1010.60
2018-07-29T13:05:30.507Z,1010.61
2018-07-29T13:06:30.412Z,1010.58
2018-07-29T13:07:30.322Z,1010.65
2018-07-29T13:08:30.231Z,1010.59
2018-07-29T13:09:30.150Z,1010.59
2018-07-29T13:10:30.062Z,1010.61
2018-07-29T13:11:29.968Z,1010.56
2018-07-29T13:12:29.882Z,1010.57
2018-07-29T13:13:29.790Z,1010.54
2018-07-29T13:14:29.710Z,1010.54
2018-07-29T13:15:29.620Z,1010.57
2018-07-29T13:16:29.529Z,1010.58
2018-07-29T13:17:29.437Z,1010.57
2018-07-29T13:18:29.348Z,1010.53
2018-07-29T13:19:29.268Z,1010.53
2018-07-29T13:20:29.178Z,1010.51
2018-07-29T13:21:29.090Z,1010.54
2018-07-29T13:22:29.245Z,1010.53
2018-07-29T13:23:28.904Z,1010.50
2018-07-29T13:24:28.814Z,1010.50
2018-07-29T13:25:28.756Z,1010.46
2018-07-29T13:26:28.646Z,1010.49
2018-07-29T13:27:28.556Z,1010.49
2018-07-29T13:28:28.464Z,1010.45
2018-07-29T13:29:28.373Z,1010.43
2018-07-29T13:30:28.282Z,1010.41
2018-07-29T13:31:28.210Z,1010.40
2018-07-29T13:32:28.112Z,1010.42
2018-07-29T13:33:28.024Z,1010.42
2018-07-29T13:34:27.932Z,1010.45
2018-07-29T13:35:27.842Z,1010.42
2018-07-29T13:36:27.751Z,1010.41
2018-07-29T13:37:27.991Z,1010.44
2018-07-29T13:38:27.581Z,1010.44
2018-07-29T13:39:27.495Z,1010.42
2018-07-29T13:40:27.399Z,1010.42
2018-07-29T13:41:27.308Z,1010.43
2018-07-29T13:42:27.216Z,1010.40
2018-07-29T13:43:27.137Z,1010.40
2018-07-29T13:44:27.050Z,1010.41
2018-07-29T13:45:26.957Z,1010.39
2018-07-29T13:46:26.910Z,1010.36
2018-07-29T13:47:26.777Z,1010.40
2018-07-29T13:48:26.686Z,1010.40
2018-07-29T13:49:26.685Z,1010.42
2018-07-29T13:50:26.514Z,1010.39
2018-07-29T13:51:26.427Z,1010.32
2018-07-29T13:52:26.333Z,1010.34
2018-07-29T13:53:26.243Z,1010.36
2018-07-29T13:54:26.154Z,1010.33
2018-07-29T13:55:26.073Z,1010.36
2018-07-29T13:56:25.985Z,1010.36
2018-07-29T13:57:26.193Z,1010.34
2018-07-29T13:58:25.803Z,1010.37
2018-07-29T13:59:25.711Z,1010.35
2018-07-29T14:00:25.621Z,1010.33
2018-07-29T14:01:25.541Z,1010.36
2018-07-29T14:02:25.449Z,1010.32
2018-07-29T14:03:25.360Z,1010.30
2018-07-29T14:04:25.268Z,1010.31
2018-07-29T14:05:25.179Z,1010.27
2018-07-29T14:06:25.092Z,1010.24
2018-07-29T14:07:25.010Z,1010.23
2018-07-29T14:08:24.920Z,1010.22
2018-07-29T14:09:24.837Z,1010.21
2018-07-29T14:10:24.739Z,1010.19
2018-07-29T14:11:24.647Z,1010.21
2018-07-29T14:12:24.557Z,1010.13
2018-07-29T14:13:24.476Z,1010.18
2018-07-29T14:14:24.385Z,1010.15
2018-07-29T14:15:24.295Z,1010.17
2018-07-29T14:16:24.235Z,1010.12
2018-07-29T14:17:24.116Z,1010.11
2018-07-29T14:18:24.026Z,1010.13
2018-07-29T14:19:23.946Z,1010.15
2018-07-29T14:20:23.857Z,1010.13
2018-07-29T14:21:23.761Z,1010.10
2018-07-29T14:22:23.924Z,1010.13
2018-07-29T14:23:23.592Z,1010.15
2018-07-29T14:24:23.490Z,1010.13
2018-07-29T14:25:23.412Z,1010.14
2018-07-29T14:26:23.321Z,1010.15
2018-07-29T14:27:23.229Z,1010.11
2018-07-29T14:28:23.138Z,1010.12
2018-07-29T14:29:23.051Z,1010.15
2018-07-29T14:30:22.960Z,1010.13
2018-07-29T14:31:22.881Z,1010.12
2018-07-29T14:32:22.823Z,1010.14
2018-07-29T14:33:22.696Z,1010.15
2018-07-29T14:34:22.606Z,1010.15
2018-07-29T14:35:22.519Z,1010.16
2018-07-29T14:36:22.438Z,1010.14
2018-07-29T14:37:22.350Z,1010.15
2018-07-29T14:38:22.291Z,1010.17
2018-07-29T14:39:22.168Z,1010.16
2018-07-29T14:40:22.079Z,1010.17
2018-07-29T14:41:21.997Z,1010.17
2018-07-29T14:42:22.157Z,1010.18
2018-07-29T14:43:21.816Z,1010.16
2018-07-29T14:44:21.726Z,1010.14
2018-07-29T14:45:21.639Z,1010.14
2018-07-29T14:46:21.554Z,1010.16
2018-07-29T14:47:21.484Z,1010.18
2018-07-29T14:48:21.372Z,1010.19
2018-07-29T14:49:21.285Z,1010.16
2018-07-29T14:50:21.193Z,1010.14
2018-07-29T14:51:21.104Z,1010.10
2018-07-29T14:52:21.013Z,1010.08
2018-07-29T14:53:20.931Z,1010.09
2018-07-29T14:54:20.841Z,1010.08
2018-07-29T14:55:20.749Z,1010.05
2018-07-29T14:56:20.662Z,1010.06
2018-07-29T14:57:20.868Z,1010.03
2018-07-29T14:58:20.489Z,1010.04
2018-07-29T14:59:20.400Z,1010.06
2018-07-29T15:00:20.308Z,1010.04
2018-07-29T15:01:20.226Z,1009.99
2018-07-29T15:02:20.129Z,1009.98
2018-07-29T15:03:20.050Z,1010.00
2018-07-29T15:04:19.959Z,1009.96
2018-07-29T15:05:19.867Z,1010.01
2018-07-29T15:06:19.776Z,1009.98
2018-07-29T15:07:19.685Z,1010.06
2018-07-29T15:08:19.594Z,1010.00
2018-07-29T15:09:19.519Z,1010.04
2018-07-29T15:10:19.471Z,1010.01
2018-07-29T15:11:19.337Z,1009.99
2018-07-29T15:12:19.245Z,1009.96
2018-07-29T15:13:19.153Z,1009.96
2018-07-29T15:14:19.102Z,1009.97
2018-07-29T15:15:18.983Z,1009.94
2018-07-29T15:16:18.963Z,1009.91
2018-07-29T15:17:18.804Z,1009.89
2018-07-29T15:18:18.709Z,1009.88
2018-07-29T15:19:18.621Z,1009.90
2018-07-29T15:20:18.532Z,1009.86
2018-07-29T15:21:18.452Z,1009.90
2018-07-29T15:22:18.360Z,1009.91
2018-07-29T15:23:18.271Z,1009.88
2018-07-29T15:24:18.183Z,1009.89
2018-07-29T15:25:18.090Z,1009.84
2018-07-29T15:26:17.999Z,1009.84
2018-07-29T15:27:17.920Z,1009.84
2018-07-29T15:28:17.874Z,1009.81
2018-07-29T15:29:17.739Z,1009.78
2018-07-29T15:30:17.648Z,1009.75
2018-07-29T15:31:17.557Z,1009.76
2018-07-29T15:32:17.467Z,1009.76
2018-07-29T15:33:17.394Z,1009.70
2018-07-29T15:34:17.377Z,1009.74
2018-07-29T15:35:17.206Z,1009.73
2018-07-29T15:36:17.113Z,1009.75
2018-07-29T15:37:17.024Z,1009.74
2018-07-29T15:38:16.935Z,1009.77
2018-07-29T15:39:16.855Z,1009.81
2018-07-29T15:40:16.831Z,1009.79
2018-07-29T15:41:16.672Z,1009.81
2018-07-29T15:42:16.833Z,1009.80
2018-07-29T15:43:16.494Z,1009.84
2018-07-29T15:44:16.400Z,1009.82
2018-07-29T15:45:16.322Z,1009.83
2018-07-29T15:46:16.230Z,1009.82
2018-07-29T15:47:16.140Z,1009.83
2018-07-29T15:48:16.085Z,1009.84
2018-07-29T15:49:15.962Z,1009.86
2018-07-29T15:50:15.884Z,1009.86
2018-07-29T15:51:15.795Z,1009.87
2018-07-29T15:52:15.701Z,1009.88
2018-07-29T15:53:15.611Z,1009.88
2018-07-29T15:54:15.519Z,1009.85
2018-07-29T15:55:15.425Z,1009.86
2018-07-29T15:56:15.347Z,1009.87
2018-07-29T15:57:15.260Z,1009.86
2018-07-29T15:58:15.168Z,1009.87
2018-07-29T15:59:15.107Z,1009.86
2018-07-29T16:00:14.986Z,1009.88
2018-07-29T16:01:14.924Z,1009.84
2018-07-29T16:02:14.817Z,1009.87
2018-07-29T16:03:14.726Z,1009.86
2018-07-29T16:04:14.636Z,1009.82
2018-07-29T16:05:14.563Z,1009.83
2018-07-29T16:06:14.453Z,1009.79
2018-07-29T16:07:14.375Z,1009.81
2018-07-29T16:08:14.283Z,1009.80
2018-07-29T16:09:14.196Z,1009.79
2018-07-29T16:10:14.103Z,1009.81
2018-07-29T16:11:14.013Z,1009.81
2018-07-29T16:12:13.936Z,1009.83
2018-07-29T16:13:13.841Z,1009.87
2018-07-29T16:14:13.751Z,1009.82
2018-07-29T16:15:13.659Z,1009.82
2018-07-29T16:16:13.570Z,1009.81
2018-07-29T16:17:13.493Z,1009.82
2018-07-29T16:18:13.401Z,1009.84
2018-07-29T16:19:13.312Z,1009.84
2018-07-29T16:20:13.220Z,1009.87
2018-07-29T16:21:13.128Z,1009.89
2018-07-29T16:22:13.050Z,1009.89
2018-07-29T16:23:12.958Z,1009.89
2018-07-29T16:24:12.869Z,1009.89
2018-07-29T16:25:12.790Z,1009.91
2018-07-29T16:26:12.688Z,1009.92
2018-07-29T16:27:12.610Z,1009.90
2018-07-29T16:28:12.519Z,1009.92
2018-07-29T16:29:12.426Z,1009.93
2018-07-29T16:30:12.351Z,1009.95
2018-07-29T16:31:12.246Z,1009.93
2018-07-29T16:32:12.168Z,1009.93
2018-07-29T16:33:12.075Z,1009.95
2018-07-29T16:34:11.985Z,1009.95
2018-07-29T16:35:11.893Z,1009.96
2018-07-29T16:36:11.828Z,1009.94
2018-07-29T16:37:11.726Z,1009.92
2018-07-29T16:38:11.636Z,1009.89
2018-07-29T16:39:11.547Z,1009.93
2018-07-29T16:40:11.467Z,1009.92
2018-07-29T16:41:11.374Z,1009.90
2018-07-29T16:42:11.305Z,1009.89
2018-07-29T16:43:11.192Z,1009.89
2018-07-29T16:44:11.103Z,1009.91
2018-07-29T16:45:11.029Z,1009.92
2018-07-29T16:46:10.934Z,1009.93
2018-07-29T16:47:11.093Z,1009.93
2018-07-29T16:48:10.754Z,1009.91
2018-07-29T16:49:10.674Z,1009.90
2018-07-29T16:50:10.585Z,1009.87
2018-07-29T16:51:10.492Z,1009.89
2018-07-29T16:52:10.403Z,1009.88
2018-07-29T16:53:10.310Z,1009.82
2018-07-29T16:54:10.230Z,1009.85
2018-07-29T16:55:10.140Z,1009.90
2018-07-29T16:56:10.049Z,1009.86
2018-07-29T16:57:09.961Z,1009.85
2018-07-29T16:58:09.883Z,1009.80
2018-07-29T16:59:09.795Z,1009.85
2018-07-29T17:00:09.701Z,1009.84
2018-07-29T17:01:09.607Z,1009.83
2018-07-29T17:02:09.533Z,1009.82
2018-07-29T17:03:09.439Z,1009.82
2018-07-29T17:04:09.347Z,1009.83
2018-07-29T17:05:09.265Z,1009.82
2018-07-29T17:06:09.166Z,1009.81
2018-07-29T17:07:09.088Z,1009.82
2018-07-29T17:08:08.998Z,1009.81
2018-07-29T17:09:08.940Z,1009.81
2018-07-29T17:10:08.818Z,1009.85
2018-07-29T17:11:08.741Z,1009.85
2018-07-29T17:12:08.648Z,1009.83
2018-07-29T17:13:08.555Z,1009.84
2018-07-29T17:14:08.479Z,1009.82
2018-07-29T17:15:08.375Z,1009.84
2018-07-29T17:16:08.283Z,1009.79
2018-07-29T17:17:08.195Z,1009.84
2018-07-29T17:18:08.117Z,1009.80
2018-07-29T17:19:08.025Z,1009.82
2018-07-29T17:20:07.980Z,1009.81
2018-07-29T17:21:07.842Z,1009.83
2018-07-29T17:22:07.750Z,1009.88
2018-07-29T17:23:07.659Z,1009.85
2018-07-29T17:24:07.583Z,1009.88
2018-07-29T17:25:07.493Z,1009.90
2018-07-29T17:26:07.401Z,1009.87
2018-07-29T17:27:07.311Z,1009.86
2018-07-29T17:28:07.220Z,1009.90
2018-07-29T17:29:07.128Z,1009.85
2018-07-29T17:30:07.037Z,1009.90
2018-07-29T17:31:06.958Z,1009.85
2018-07-29T17:32:07.119Z,1009.87
2018-07-29T17:33:06.779Z,1009.88
2018-07-29T17:34:06.691Z,1009.83
2018-07-29T17:35:06.597Z,1009.83
2018-07-29T17:36:06.507Z,1009.84
2018-07-29T17:37:06.416Z,1009.84
2018-07-29T17:38:06.339Z,1009.87
2018-07-29T17:39:06.247Z,1009.89
2018-07-29T17:40:06.155Z,1009.88
2018-07-29T17:41:06.066Z,1009.85
2018-07-29T17:42:05.971Z,1009.91
2018-07-29T17:43:05.881Z,1009.91
2018-07-29T17:44:05.789Z,1009.86
2018-07-29T17:45:05.702Z,1009.88
2018-07-29T17:46:05.623Z,1009.89
2018-07-29T17:47:05.533Z,1009.88
2018-07-29T17:48:05.442Z,1009.88
2018-07-29T17:49:05.348Z,1009.87
2018-07-29T17:50:05.261Z,1009.90
2018-07-29T17:51:05.166Z,1009.90
2018-07-29T17:52:05.077Z,1009.92
2018-07-29T17:53:04.985Z,1009.93
2018-07-29T17:54:04.906Z,1009.95
2018-07-29T17:55:04.817Z,1009.93
2018-07-29T17:56:04.724Z,1009.98
2018-07-29T17:57:04.637Z,1009.98
2018-07-29T17:58:04.545Z,1009.98
2018-07-29T17:59:04.479Z,1009.97
2018-07-29T18:00:04.364Z,1009.96
2018-07-29T18:01:04.271Z,1009.98
2018-07-29T18:02:04.180Z,1009.97
2018-07-29T18:03:04.092Z,1009.99